Ocean Highway — H3IE — position and weather

sailwx.info

Track history (hours):
 
Tides and Currents Weather Stations Pressure Air Temp Water Temp Dewpoint Dewpoint Depression Visibility Wind Speed Wind Dir Waves Ship Positions

Ocean Highway

Last reported at 2017-Feb-24 02:32 UTC. Time now 2017-Mar-01 20:16 UTC.
Position N 01°14' E 103°60'.

Length 179.1 m; beam 32.2 m.

Type: Cargo ship. MMSI: 353951000.

Date/timePositionNaut miles runAvg speedWind from/ knotsBaromVisibWave heightAir tempDewpointWater temp
2017-Feb-24 02:32N 01°14' E 103°60'1111.6
2017-Feb-24 01:34N 01°12' E 103°49'6 5.4
2017-Feb-24 00:29N 01°17' E 103°45'0 0.0
2017-Feb-23 23:32N 01°17' E 103°45'0 0.0
2017-Feb-23 22:32N 01°17' E 103°45'0 0.0
2017-Feb-23 21:32N 01°17' E 103°45'0 0.0
2017-Feb-23 20:32N 01°17' E 103°45'0 0.0
2017-Feb-23 19:32N 01°17' E 103°45'0 0.0
2017-Feb-23 18:32N 01°17' E 103°45'0 0.0
2017-Feb-23 17:32N 01°17' E 103°45'0 0.0
2017-Feb-23 16:29N 01°17' E 103°45'0 0.0
2017-Feb-23 15:32N 01°17' E 103°45'0 0.0
2017-Feb-23 14:32N 01°17' E 103°45'0 0.0
2017-Feb-23 13:24N 01°17' E 103°45'4 5.1
2017-Feb-23 12:33N 01°14' E 103°48'10 9.6
2017-Feb-23 11:33N 01°15' E 103°57'  
2017-Feb-19 14:33N 01°13' E 103°56'8 7.7
2017-Feb-19 13:33N 01°13' E 103°48'5 1.2
2017-Feb-19 09:18N 01°17' E 103°45'0 0.0
2017-Feb-19 08:33N 01°17' E 103°45'0 0.0
2017-Feb-19 07:21N 01°17' E 103°45'0 0.0
2017-Feb-19 06:21N 01°17' E 103°45'0 0.0
2017-Feb-19 02:24N 01°17' E 103°45'0 0.1
2017-Feb-19 01:33N 01°17' E 103°45'6 6.4
2017-Feb-19 00:33N 01°12' E 103°50'9 8.7
2017-Feb-18 23:33N 01°15' E 103°58'  
Track history (hours):
 
Tides and Currents Weather Stations Pressure Air Temp Water Temp Dewpoint Dewpoint Depression Visibility Wind Speed Wind Dir Waves Ship Positions

Ocean Highway

Last reported at 2017-Feb-24 02:32 UTC. Time now 2017-Mar-01 20:16 UTC.
Position N 01°14' E 103°60'.

Length 179.1 m; beam 32.2 m.

Type: Cargo ship. MMSI: 353951000.

Date/timePositionNaut miles runAvg speedWind from/ knotsBaromVisibWave heightAir tempDewpointWater temp
2017-Feb-24 02:32N 01°14' E 103°60'1111.6
2017-Feb-24 01:34N 01°12' E 103°49'6 5.4
2017-Feb-24 00:29N 01°17' E 103°45'0 0.0
2017-Feb-23 23:32N 01°17' E 103°45'0 0.0
2017-Feb-23 22:32N 01°17' E 103°45'0 0.0
2017-Feb-23 21:32N 01°17' E 103°45'0 0.0
2017-Feb-23 20:32N 01°17' E 103°45'0 0.0
2017-Feb-23 19:32N 01°17' E 103°45'0 0.0
2017-Feb-23 18:32N 01°17' E 103°45'0 0.0
2017-Feb-23 17:32N 01°17' E 103°45'0 0.0
2017-Feb-23 16:29N 01°17' E 103°45'0 0.0
2017-Feb-23 15:32N 01°17' E 103°45'0 0.0
2017-Feb-23 14:32N 01°17' E 103°45'0 0.0
2017-Feb-23 13:24N 01°17' E 103°45'4 5.1
2017-Feb-23 12:33N 01°14' E 103°48'10 9.6
2017-Feb-23 11:33N 01°15' E 103°57'  
2017-Feb-19 14:33N 01°13' E 103°56'8 7.7
2017-Feb-19 13:33N 01°13' E 103°48'5 1.2
2017-Feb-19 09:18N 01°17' E 103°45'0 0.0
2017-Feb-19 08:33N 01°17' E 103°45'0 0.0
2017-Feb-19 07:21N 01°17' E 103°45'0 0.0
2017-Feb-19 06:21N 01°17' E 103°45'0 0.0
2017-Feb-19 02:24N 01°17' E 103°45'0 0.1
2017-Feb-19 01:33N 01°17' E 103°45'6 6.4
2017-Feb-19 00:33N 01°12' E 103°50'9 8.7
2017-Feb-18 23:33N 01°15' E 103°58'  

Dump ship's entire track history